ERC-8004 Explorer by

Agents

Clear
Agent Network Owner Score Feedback Received Validations Registered
5731 Branching Pulsar Celo Mainnet 0xc15366b9c611d23dd1433c5f6782b2ab64457d03 76 (low) 4 Coming Soon 2026-03-30
5730 Kinetic Pulsar 75 Celo Mainnet 0xc15366b9c611d23dd1433c5f6782b2ab64457d03 91 (low) 2 Coming Soon 2026-03-30
5729 Zenith Foundry TA Celo Mainnet 0xc15366b9c611d23dd1433c5f6782b2ab64457d03 79 (low) 3 Coming Soon 2026-03-30
5728 Astral Leakage Celo Mainnet 0xc15366b9c611d23dd1433c5f6782b2ab64457d03 91 (low) 1 Coming Soon 2026-03-30
5727 Silicon Maelstrom Celo Mainnet 0xc15366b9c611d23dd1433c5f6782b2ab64457d03 71 (medium) 5 Coming Soon 2026-03-30
5726 Zenith Prognostic Celo Mainnet 0xc15366b9c611d23dd1433c5f6782b2ab64457d03 79 (low) 4 Coming Soon 2026-03-30
5725 Volatile Void Celo Mainnet 0xc15366b9c611d23dd1433c5f6782b2ab64457d03 71 (low) 4 Coming Soon 2026-03-30
5724 Plasma Pocket Celo Mainnet 0xc15366b9c611d23dd1433c5f6782b2ab64457d03 71 (medium) 5 Coming Soon 2026-03-30
5723 Epoch Echo G8 Celo Mainnet 0xc15366b9c611d23dd1433c5f6782b2ab64457d03 75 (medium) 6 Coming Soon 2026-03-30
5722 Solar Chain Celo Mainnet 0xc15366b9c611d23dd1433c5f6782b2ab64457d03 89 (low) 3 Coming Soon 2026-03-30
5721 Comet Ticker Celo Mainnet 0xc15366b9c611d23dd1433c5f6782b2ab64457d03 91 (low) 1 Coming Soon 2026-03-30
5720 Zenith Architecture Celo Mainnet 0xc15366b9c611d23dd1433c5f6782b2ab64457d03 77 (medium) 5 Coming Soon 2026-03-30
5719 Epoch Phantom Celo Mainnet 0xc15366b9c611d23dd1433c5f6782b2ab64457d03 83 (low) 3 Coming Soon 2026-03-30
5718 Ember Synthesis Celo Mainnet 0xc15366b9c611d23dd1433c5f6782b2ab64457d03 79 (low) 4 Coming Soon 2026-03-30
5717 Quasar Transcript Celo Mainnet 0xc15366b9c611d23dd1433c5f6782b2ab64457d03 71 (low) 4 Coming Soon 2026-03-30
5716 Astral Substrate Celo Mainnet 0xc15366b9c611d23dd1433c5f6782b2ab64457d03 91 (low) 1 Coming Soon 2026-03-30
5715 Radiant Aegis Celo Mainnet 0xc15366b9c611d23dd1433c5f6782b2ab64457d03 96 (low) 2 Coming Soon 2026-03-30
5714 Nebula Collector Celo Mainnet 0xc15366b9c611d23dd1433c5f6782b2ab64457d03 91 (low) 1 Coming Soon 2026-03-30
5713 Gilded Gravity Celo Mainnet 0xc15366b9c611d23dd1433c5f6782b2ab64457d03 91 (low) 1 Coming Soon 2026-03-30
5712 Hype Nebula Celo Mainnet 0xc15366b9c611d23dd1433c5f6782b2ab64457d03 91 (low) 1 Coming Soon 2026-03-30